Detall de PIREP

Printer-friendly versionPDF version

[2009/06/18 22:47:00]
Flight IATA:CT0001
Pilot Number:026
Company ICAO:CAT
Aircraft Type:B463/A
PAX:0
Departing Airport: LERS
Destination Airport: LEVC
Alternate Airport:LEPA
Online: VATSIM
Route:EBROX B28 SOPET
Flight Level:FL170
No Slew and time accel
No pause
Crash detect
Detect pilot in Cockpit between each 30 and 45 minutes
22:47 Zero fuel Weight: 87516 Lbs, Fuel Weight: 10002 Lbs
22:47 VATSIM:LERS 182200Z VRB01KT 9999 FEW050 22/16 Q1019
22:47 VATSIM:LEVC 182230Z VRB02KT CAVOK 23/12 Q1019 NOSIG
22:47 VOICE CATALONIAN
22:56 Parking Brakes off
23:08 Take-off
23:08 Take off Weight: 96707 Lbs
23:08 Wind: 220º @ 002 Knots Heading: 248º
23:08 POS N41º 08´ 44´´ E001º 09´ 40´´
23:08 Gear Up: 147 Knots
23:08 Flaps:2 at 147 Knots
23:08 Flaps:1 at 147 Knots
23:09 Flaps:0 at 149 Knots
23:17 TOC
23:17 Fuel Weight: 7716 Lb
23:20 TOD
23:20 Fuel Weight: 7290 Lb
23:21
TOC
23:21 Fuel Weight: 7270 Lb
23:23 Wind:213º@007 Knots Heading: 238º Ground Speed: 355 Knots Altitude 17162 ft
23:31 TOD
23:31 Fuel Weight: 6377 Lb
23:31 TOC
23:31 Fuel Weight: 6365 Lb
23:31 TOD
23:31 Fuel Weight: 6339 Lb
23:38 Wind:320º@002 Knots Heading: 170º Ground Speed: 253 Knots Altitude 4143 ft
23:41 Flaps:1 at 188 Knots
23:41 Flaps:2 at 158 Knots
23:41 Gear Down: 157 Knots
23:42 Flaps:3 at 146 Knots
23:42 Flaps:4 at 146 Knots
23:43 TouchDown:Rate -322 ft/min Speed: 132 Knots
23:43 VATSIM:LEVC 182330Z VRB02KT CAVOK 22/12 Q1019 NOSIG
23:43 Land
23:43 Wind:261º@000 Knots
23:43 Heading: 296º
23:43 Flight Duration: 00:35
23:43 Landing Weight: 93507 Lbs
23:43 POS N39º 29´ 15´´ W000º 28´ 39´´
23:48 Parking brakes on
23:48 Block to Block Duration: 00:52
23:48 Final Fuel: 5753 Lbls
23:48 Spent Fuel: 4248 Lbls
23:48 Flight Length: 160 NM
23:48 TO
D Land Length: 48 NM

Exportar CSV

Powered by Drupal - Modified by Danger4k